Belle Plaine, MN (56011)

6:47 PM CST on December 21, 2014 (GMT -0600)
Our Lady of the Prairie | Change Station
CLOSE
Current Station
Personal Weather Station
Location: Belle Plaine, MN
Elevation: 840 ft
Nearby Weather Stations

Elev 840 ft 44.62 °N, 93.77 °W | Updated 12 minutes ago

Overcast
Overcast
37.8 °F
Feels Like 38 °F
N
2.0
Wind Variable Wind from South
Gusts 10.0 mph

Today
High -- | Low -- °F
--% Chance of Precip.
Yesterday
High -- | Low -- °F
Precip. -- in
7:48 AM 4:37 PM
Waning Crescent, 0% visible
Pressure 29.69 in
Visibility 1.5 miles
Clouds Overcast 300 ft
Windchill 38 °F
Dew Point 37 °F
Humidity 97%
Rainfall 0.02 in
Snow Depth Not available.
UV 0.0 out of 12
Pollen .10 out of 12
Air Quality Not available.
Flu Activity Not available.
METAR KGYL 220034Z AUTO 15008KT 1 1/2SM UP OVC003 03/03 A2969 RMK AO2 T00300030

More Conditions Fewer Conditions

Pressure 29.69 in
Visibility 1.5 miles
Clouds Overcast 300 ft
Windchill 38 °F
Dew Point 37 °F
Humidity 97%
Rainfall 0.02 in
Snow Depth Not available.
UV 0.0 out of 12
Pollen .10 out of 12
Air Quality Not available.
Flu Activity Not available.
METAR KGYL 220034Z AUTO 15008KT 1 1/2SM UP OVC003 03/03 A2969 RMK AO2 T00300030

More Conditions Fewer Conditions

10-Day Weather Forecast

Almanac

Astronomy

Dec. 21, 2014 Rise Set
Actual Time
Civil Twilight
Nautical Twilight
Astronomical Twilight
Moon
Length of Visible Light
Length of Day
Tomorrow will be .
, % of the Moon is Illuminated

Today's Extremes

State Highs State Lows

Community

WunderPhotos

Upload Photos

1,779,509 photos uploaded!

WunderBlogs® & News

Nearby

Air Quality

  Air Quality AQ Index Pollutant
Not available.

Snow Depth

Station Depth Elevation

Earthquake Activity

City Distance Mag. Time & Date
Minimum magnitude displayed is 2.5.

Coastal Water Temperatures

Place Temperature

Nearby Weather Stations